Time;durP1;ratioP1;P1;durP2;ratioP2;P2;SDS_P1;SDS_P2;PMS_P1;PMS_P2;Temp;Humidity;BMP_temperature;BMP_pressure;BME280_temperature;BME280_humidity;BME280_pressure;Samples;Min_cycle;Max_cycle;Signal;HPM_P1;HPM_P2
2021/08/13 00:03:51;;;;;;;0.00;0.00;;;;;;;16.46;90.58;102020.13;10535731;28;20390;-62
2021/08/13 00:08:51;;;;;;;0.00;0.00;;;;;;;16.37;89.92;102015.75;10535818;28;20379;-63
2021/08/13 00:13:51;;;;;;;0.08;0.08;;;;;;;16.32;90.89;102026.19;10535207;28;20258;-62
2021/08/13 00:18:51;;;;;;;0.00;0.00;;;;;;;16.30;91.24;102029.88;10535508;28;20077;-63
2021/08/13 00:23:52;;;;;;;0.00;0.00;;;;;;;16.37;92.56;102024.66;10535247;28;20073;-62
2021/08/13 00:28:52;;;;;;;0.00;0.00;;;;;;;16.35;92.26;102015.94;10516954;28;20031;-61
2021/08/13 00:33:53;;;;;;;0.00;0.00;;;;;;;16.35;92.01;102028.53;10535031;28;20020;-61
2021/08/13 00:38:54;;;;;;;0.10;0.10;;;;;;;16.40;92.85;102039.63;10545593;22;20557;-62
2021/08/13 00:43:55;;;;;;;0.10;0.10;;;;;;;16.56;93.95;102042.31;10530416;28;20024;-62
2021/08/13 00:48:55;;;;;;;0.00;0.00;;;;;;;16.70;94.69;102035.44;10529605;28;20016;-62
2021/08/13 00:53:56;;;;;;;0.10;0.10;;;;;;;16.81;94.38;102031.56;10505075;28;20108;-62
2021/08/13 00:58:56;;;;;;;0.10;0.10;;;;;;;16.86;93.94;102034.59;10507104;28;20092;-62
2021/08/13 01:03:57;;;;;;;0.10;0.10;;;;;;;16.93;93.71;102035.59;10506770;28;20028;-62
2021/08/13 01:08:57;;;;;;;0.08;0.08;;;;;;;17.00;93.88;102033.03;10502001;28;21213;-64
2021/08/13 01:14:24;;;;;;;0.08;0.08;;;;;;;17.05;93.47;102030.69;10508254;28;20421;-62
2021/08/13 01:19:35;;;;;;;0.00;0.00;;;;;;;17.11;93.49;102030.81;10505333;28;20502;-62
2021/08/13 01:24:41;;;;;;;0.00;0.00;;;;;;;17.15;92.98;102034.00;10500081;28;20154;-62
2021/08/13 01:29:57;;;;;;;0.10;0.10;;;;;;;17.19;93.34;102030.81;10504225;28;20381;-62
2021/08/13 01:35:05;;;;;;;0.10;0.10;;;;;;;17.15;91.97;102029.44;10519764;28;20017;-62
2021/08/13 01:40:10;;;;;;;0.00;0.00;;;;;;;17.05;91.76;102028.00;10526470;28;20054;-62
2021/08/13 01:45:15;;;;;;;0.00;0.00;;;;;;;17.03;92.59;102030.84;10520593;28;20058;-62
2021/08/13 01:50:17;;;;;;;0.00;0.00;;;;;;;17.07;92.82;102024.09;10504692;28;20028;-62
2021/08/13 01:55:18;;;;;;;0.00;0.00;;;;;;;17.12;92.69;102029.81;10516282;28;20012;-62
2021/08/13 02:00:21;;;;;;;0.00;0.00;;;;;;;17.15;92.58;102034.00;10522243;28;20112;-62
2021/08/13 02:05:28;;;;;;;0.10;0.10;;;;;;;17.12;92.08;102034.34;10516906;28;20383;-62
2021/08/13 02:10:29;;;;;;;0.10;0.10;;;;;;;17.11;91.86;102035.38;10536812;28;20479;-62
2021/08/13 02:15:31;;;;;;;0.10;0.10;;;;;;;17.03;91.58;102017.38;10508506;28;20498;-62
2021/08/13 02:20:33;;;;;;;0.00;0.00;;;;;;;16.94;91.86;102013.88;10512001;28;20020;-62
2021/08/13 02:25:33;;;;;;;0.00;0.00;;;;;;;16.89;91.53;102023.47;10530250;28;20024;-62
2021/08/13 02:30:33;;;;;;;0.10;0.10;;;;;;;16.85;91.65;102016.78;10519079;28;20497;-62
2021/08/13 02:35:34;;;;;;;0.10;0.10;;;;;;;16.83;91.86;102013.41;10499796;28;20024;-62
2021/08/13 02:40:43;;;;;;;0.10;0.10;;;;;;;16.80;91.78;102013.75;10506266;28;20064;-62
2021/08/13 02:45:47;;;;;;;0.10;0.10;;;;;;;16.58;89.98;102010.72;10503935;28;20498;-62
2021/08/13 02:50:49;;;;;;;0.10;0.10;;;;;;;16.33;90.92;102012.56;10498116;28;20023;-62
2021/08/13 02:56:02;;;;;;;0.10;0.10;;;;;;;16.20;92.17;102015.78;10517290;28;20016;-62
2021/08/13 03:01:03;;;;;;;0.10;0.10;;;;;;;16.12;92.07;102005.03;10518062;28;20028;-62
2021/08/13 03:06:06;;;;;;;0.10;0.10;;;;;;;16.05;92.48;101998.63;10504839;28;20031;-62
2021/08/13 03:11:06;;;;;;;0.10;0.10;;;;;;;16.06;93.45;102001.16;10501406;28;20032;-62
2021/08/13 03:16:08;;;;;;;0.00;0.00;;;;;;;16.11;93.17;101994.41;10512456;28;20009;-62
2021/08/13 03:21:09;;;;;;;0.10;0.10;;;;;;;16.10;92.89;102011.56;10498111;28;20038;-62
2021/08/13 03:26:10;;;;;;;0.10;0.10;;;;;;;16.15;93.03;102025.34;10513331;28;20025;-62
2021/08/13 03:31:35;;;;;;;0.10;0.10;;;;;;;16.14;92.98;102015.59;10515564;28;20020;-62
2021/08/13 03:36:37;;;;;;;0.10;0.10;;;;;;;16.10;92.77;102009.72;10508186;28;20414;-62
2021/08/13 03:41:37;;;;;;;0.10;0.10;;;;;;;16.08;92.73;101998.28;10493318;28;20154;-62
2021/08/13 03:46:38;;;;;;;0.10;0.10;;;;;;;16.07;92.49;102010.03;10520222;28;20611;-62
2021/08/13 03:51:38;;;;;;;0.10;0.10;;;;;;;16.04;92.61;102011.22;10525396;28;20024;-62
2021/08/13 03:56:38;;;;;;;0.00;0.00;;;;;;;16.03;92.95;102014.09;10522933;28;20500;-62
2021/08/13 04:01:39;;;;;;;0.00;0.00;;;;;;;16.03;92.29;102024.84;10517356;28;20032;-62
2021/08/13 04:06:39;;;;;;;0.10;0.10;;;;;;;16.00;92.27;102020.63;10513596;28;20063;-62
2021/08/13 04:11:39;;;;;;;0.00;0.00;;;;;;;15.96;92.28;102016.56;10510246;28;20039;-62
2021/08/13 04:16:39;;;;;;;0.10;0.10;;;;;;;15.90;92.70;102019.94;10475973;28;20478;-63
2021/08/13 04:21:40;;;;;;;0.10;0.10;;;;;;;15.93;92.49;102022.28;10489739;28;20499;-62
2021/08/13 04:26:40;;;;;;;0.10;0.10;;;;;;;16.28;92.73;102021.13;10490303;28;20493;-62
2021/08/13 04:31:40;;;;;;;0.10;0.10;;;;;;;16.89;91.00;102029.69;10487373;28;20016;-62
2021/08/13 04:36:41;;;;;;;0.00;0.00;;;;;;;17.29;88.76;102021.69;10507522;28;20053;-63
2021/08/13 04:41:41;;;;;;;0.10;0.10;;;;;;;17.11;85.34;102021.91;10514122;28;20024;-63
2021/08/13 04:46:41;;;;;;;0.00;0.00;;;;;;;17.37;84.61;102009.03;10514572;28;20026;-62
2021/08/13 04:51:42;;;;;;;0.00;0.00;;;;;;;18.34;84.65;102013.97;10507025;28;20028;-63
2021/08/13 04:56:43;;;;;;;0.00;0.00;;;;;;;19.56;81.48;102019.09;10510662;28;20016;-63
2021/08/13 05:01:43;;;;;;;0.10;0.10;;;;;;;20.63;77.06;102019.16;10524856;28;20429;-63
2021/08/13 05:06:44;;;;;;;0.00;0.00;;;;;;;21.47;74.40;102010.09;10510137;28;20112;-63
2021/08/13 05:11:44;;;;;;;0.00;0.00;;;;;;;21.93;72.53;102007.50;10518582;28;20536;-63
2021/08/13 05:16:45;;;;;;;0.10;0.10;;;;;;;22.60;70.50;102019.25;10498930;28;20478;-63
2021/08/13 05:21:45;;;;;;;0.00;0.00;;;;;;;23.32;67.78;102018.50;10511603;28;20024;-63
2021/08/13 05:26:45;;;;;;;0.10;0.10;;;;;;;24.16;64.91;102022.88;10523471;28;20028;-63
2021/08/13 05:31:46;;;;;;;0.10;0.10;;;;;;;24.91;62.34;102024.75;10507640;28;20021;-63
2021/08/13 05:36:46;;;;;;;0.00;0.00;;;;;;;25.57;58.92;102017.69;10537112;28;20261;-63
2021/08/13 05:41:46;;;;;;;0.05;0.05;;;;;;;26.23;57.12;102015.91;10520423;28;20020;-63
2021/08/13 05:46:46;;;;;;;0.10;0.10;;;;;;;26.76;55.03;102020.47;10501259;28;20033;-63
2021/08/13 05:51:47;;;;;;;0.00;0.00;;;;;;;26.65;55.05;102013.97;10494091;28;20075;-64
2021/08/13 05:56:47;;;;;;;0.10;0.10;;;;;;;25.96;56.87;102021.78;10523353;28;20073;-63
2021/08/13 06:01:47;;;;;;;0.10;0.10;;;;;;;25.83;57.82;102025.56;10516194;28;20613;-63
2021/08/13 06:06:48;;;;;;;0.10;0.10;;;;;;;26.62;57.02;102017.19;10505691;28;20028;-63
2021/08/13 06:11:48;;;;;;;0.10;0.10;;;;;;;27.71;53.50;102022.78;10524637;28;20485;-64
2021/08/13 06:16:48;;;;;;;0.10;0.10;;;;;;;28.58;51.48;102015.25;10515802;28;20020;-64
2021/08/13 06:21:49;;;;;;;0.00;0.00;;;;;;;29.33;49.59;102020.13;10517695;28;20027;-64
2021/08/13 06:26:49;;;;;;;0.10;0.10;;;;;;;29.30;48.02;102015.16;10510215;28;20023;-64
2021/08/13 06:31:49;;;;;;;0.10;0.10;;;;;;;28.70;48.06;102015.16;10529654;28;20105;-64
2021/08/13 06:36:50;;;;;;;0.10;0.10;;;;;;;29.14;48.77;102018.78;10525349;28;20024;-64
2021/08/13 06:41:50;;;;;;;0.10;0.10;;;;;;;28.42;50.86;102014.19;10499107;28;20025;-64
2021/08/13 06:46:50;;;;;;;0.10;0.10;;;;;;;28.40;49.57;102010.84;10518693;28;20032;-64
2021/08/13 06:51:51;;;;;;;0.10;0.10;;;;;;;29.24;48.66;102005.22;10524492;28;20020;-64
2021/08/13 06:56:51;;;;;;;0.10;0.10;;;;;;;30.17;47.50;102007.84;10504469;28;20016;-64
2021/08/13 07:01:51;;;;;;;0.10;0.10;;;;;;;30.85;46.11;102021.00;10513283;28;20021;-64
2021/08/13 07:06:51;;;;;;;0.10;0.10;;;;;;;31.58;44.75;102016.34;10519211;28;20081;-64
2021/08/13 07:11:52;;;;;;;0.10;0.10;;;;;;;30.47;45.06;102013.84;10514796;28;20425;-64
2021/08/13 07:16:52;;;;;;;0.10;0.10;;;;;;;29.31;47.04;102021.47;10517060;28;20068;-64
2021/08/13 07:21:52;;;;;;;0.10;0.10;;;;;;;29.04;47.93;102027.72;10511903;28;20031;-64
2021/08/13 07:26:53;;;;;;;0.10;0.10;;;;;;;29.55;48.09;102016.53;10517198;28;20031;-64
2021/08/13 07:31:55;;;;;;;0.10;0.10;;;;;;;30.12;46.33;102002.28;10519165;28;20149;-64
2021/08/13 07:36:55;;;;;;;0.00;0.00;;;;;;;30.59;45.13;101995.22;10510279;28;20383;-64
2021/08/13 07:41:57;;;;;;;0.10;0.10;;;;;;;30.82;45.51;101989.34;10505763;28;20028;-64
2021/08/13 07:46:57;;;;;;;0.10;0.10;;;;;;;31.35;44.29;101992.88;10519807;28;20026;-64
2021/08/13 07:51:57;;;;;;;0.10;0.10;;;;;;;31.55;43.66;101991.28;10508361;28;20115;-65
2021/08/13 07:56:58;;;;;;;0.10;0.10;;;;;;;31.64;43.48;102000.66;10516562;28;20020;-64
2021/08/13 08:01:58;;;;;;;0.10;0.10;;;;;;;31.67;44.64;102015.81;10507546;28;20091;-63
2021/08/13 08:07:00;;;;;;;0.10;0.10;;;;;;;31.44;43.87;102006.94;10516943;28;20016;-62
2021/08/13 08:12:00;;;;;;;0.10;0.10;;;;;;;31.51;44.37;102001.19;10517093;28;20081;-63
2021/08/13 08:17:00;;;;;;;0.10;0.10;;;;;;;31.40;44.12;102008.59;10511001;28;20069;-63
2021/08/13 08:22:01;;;;;;;;;;;;;;;31.26;45.58;102008.22;10508857;28;20073;-64
2021/08/13 08:27:01;;;;;;;0.10;0.10;;;;;;;30.95;44.96;102000.94;10499315;28;19912;-62
2021/08/13 08:32:02;;;;;;;0.10;0.10;;;;;;;30.57;45.62;102003.72;10510813;28;20023;-62
2021/08/13 08:37:02;;;;;;;0.07;0.07;;;;;;;30.89;45.94;101989.94;10490272;28;20464;-64
2021/08/13 08:42:03;;;;;;;0.10;0.10;;;;;;;30.87;46.07;101989.38;10491452;28;20035;-63
2021/08/13 08:47:03;;;;;;;0.10;0.10;;;;;;;30.99;46.93;101991.91;10510307;28;20028;-64
2021/08/13 08:52:09;;;;;;;0.10;0.10;;;;;;;30.60;46.82;101980.38;10505042;28;20048;-63
2021/08/13 08:57:11;;;;;;;0.10;0.10;;;;;;;30.39;47.12;101984.94;10508270;28;20467;-63
2021/08/13 09:02:13;;;;;;;0.10;0.10;;;;;;;30.27;46.61;101992.53;10521807;28;20082;-63
2021/08/13 09:07:13;;;;;;;0.03;0.03;;;;;;;30.33;49.42;101986.00;10515731;28;20020;-63
2021/08/13 09:12:14;;;;;;;0.10;0.10;;;;;;;30.22;47.46;101985.06;10520402;28;20397;-64
2021/08/13 09:17:14;;;;;;;0.10;0.10;;;;;;;29.80;47.98;101995.97;10495840;28;20013;-63
2021/08/13 09:22:16;;;;;;;0.10;0.10;;;;;;;29.37;50.30;101990.25;10512165;28;20020;-63
2021/08/13 09:27:24;;;;;;;0.10;0.10;;;;;;;29.23;47.10;101997.22;10507958;28;20017;-63
2021/08/13 09:32:27;;;;;;;0.10;0.10;;;;;;;28.95;50.44;101995.50;10516252;28;20024;-63
2021/08/13 09:37:28;;;;;;;0.10;0.10;;;;;;;28.87;49.25;101992.09;10518750;28;20055;-63
2021/08/13 09:42:36;;;;;;;0.10;0.10;;;;;;;28.74;50.43;102000.72;10514744;28;20024;-63
2021/08/13 09:47:48;;;;;;;0.10;0.10;;;;;;;28.51;50.30;102006.38;10506169;28;20024;-63
2021/08/13 09:53:04;;;;;;;;;;;;;;;28.67;52.34;102003.59;10500417;28;20035;-63
2021/08/13 09:58:05;;;;;;;0.00;0.00;;;;;;;28.83;51.32;101993.69;10504565;28;19916;-63
2021/08/13 10:03:06;;;;;;;0.10;0.10;;;;;;;28.88;53.01;101993.75;10517023;28;20028;-63
2021/08/13 10:08:07;;;;;;;0.10;0.10;;;;;;;28.77;51.55;101991.13;10513007;28;20024;-63
2021/08/13 10:13:09;;;;;;;0.10;0.10;;;;;;;28.43;50.62;101994.75;10518430;28;20024;-63
2021/08/13 10:18:12;;;;;;;0.10;0.10;;;;;;;28.05;52.57;101998.22;10513194;28;20020;-63
2021/08/13 10:23:14;;;;;;;0.00;0.00;;;;;;;28.04;53.61;102006.69;10504583;28;20115;-62
2021/08/13 10:28:15;;;;;;;0.10;0.10;;;;;;;28.17;52.63;102004.44;10499454;28;20387;-63
2021/08/13 10:33:18;;;;;;;0.10;0.10;;;;;;;28.03;52.73;101988.59;10506301;28;20031;-63
2021/08/13 10:38:21;;;;;;;0.00;0.00;;;;;;;27.93;51.68;101987.34;10517397;28;20497;-63
2021/08/13 10:43:39;;;;;;;0.00;0.00;;;;;;;28.08;52.58;101983.22;10517170;28;20028;-63
2021/08/13 10:48:46;;;;;;;0.10;0.10;;;;;;;28.42;52.45;101987.63;10497303;28;20111;-63
2021/08/13 10:54:03;;;;;;;0.10;0.10;;;;;;;28.84;53.81;101967.94;10511456;28;20035;-63
2021/08/13 10:59:03;;;;;;;0.10;0.10;;;;;;;28.59;50.01;101978.53;10497705;28;20028;-64
2021/08/13 11:04:04;;;;;;;0.10;0.10;;;;;;;28.49;52.46;101964.69;10508766;28;20361;-63
2021/08/13 11:09:08;;;;;;;0.10;0.10;;;;;;;28.60;52.48;101961.84;10523845;28;20017;-63
2021/08/13 11:14:21;;;;;;;0.10;0.10;;;;;;;28.77;52.14;101961.81;10507025;28;20023;-63
2021/08/13 11:19:22;;;;;;;0.00;0.00;;;;;;;28.91;50.87;101962.25;10499813;28;20078;-64
2021/08/13 11:24:25;;;;;;;0.10;0.10;;;;;;;28.71;50.84;101962.84;10509580;28;20031;-64
2021/08/13 11:29:37;;;;;;;0.10;0.10;;;;;;;28.39;52.61;101965.31;10506031;28;20056;-64
2021/08/13 11:34:52;;;;;;;0.00;0.00;;;;;;;28.23;52.98;101964.28;10515741;28;20022;-64
2021/08/13 11:39:57;;;;;;;0.00;0.00;;;;;;;28.13;54.36;101966.84;10503792;28;20056;-64
2021/08/13 11:45:00;;;;;;;0.00;0.00;;;;;;;27.94;53.37;101960.78;10510543;28;20025;-63
2021/08/13 11:50:06;;;;;;;0.00;0.00;;;;;;;28.23;54.09;101961.53;10502553;28;20039;-63
2021/08/13 11:55:29;;;;;;;0.10;0.10;;;;;;;28.52;51.64;101953.22;10518124;28;20071;-64
2021/08/13 12:00:37;;;;;;;0.10;0.10;;;;;;;28.28;50.40;101947.94;10512695;28;20028;-64
2021/08/13 12:05:40;;;;;;;0.10;0.10;;;;;;;27.70;52.87;101955.44;10500353;28;20020;-63
2021/08/13 12:10:48;;;;;;;0.10;0.10;;;;;;;27.16;52.57;101946.75;10507172;28;20024;-64
2021/08/13 12:15:49;;;;;;;0.10;0.10;;;;;;;27.02;55.70;101945.31;10512056;28;20012;-63
2021/08/13 12:20:49;;;;;;;0.10;0.10;;;;;;;26.99;54.34;101937.59;10510477;28;20098;-63
2021/08/13 12:25:49;;;;;;;0.10;0.10;;;;;;;26.93;55.54;101944.03;10513548;28;20048;-63
2021/08/13 12:30:50;;;;;;;0.00;0.00;;;;;;;27.03;55.20;101934.16;10517862;28;20016;-63
2021/08/13 12:35:50;;;;;;;0.10;0.10;;;;;;;27.20;55.29;101942.47;10517099;28;20031;-63
2021/08/13 12:40:54;;;;;;;0.10;0.10;;;;;;;27.22;55.40;101953.16;10514693;28;20028;-63
2021/08/13 12:45:55;;;;;;;0.10;0.10;;;;;;;27.44;55.57;101947.84;10516524;28;20055;-63
2021/08/13 12:51:00;;;;;;;0.10;0.10;;;;;;;27.63;55.69;101942.97;10514419;28;20027;-63
2021/08/13 12:56:01;;;;;;;0.03;0.03;;;;;;;27.45;55.26;101949.47;10512427;28;20028;-63
2021/08/13 13:01:30;;;;;;;0.10;0.10;;;;;;;27.10;55.78;101945.78;10520560;28;20516;-63
2021/08/13 13:06:32;;;;;;;0.00;0.00;;;;;;;27.10;56.94;101943.03;10502867;28;20481;-63
2021/08/13 13:11:33;;;;;;;0.10;0.10;;;;;;;26.88;55.59;101947.53;10505587;22;20121;-63
2021/08/13 13:16:36;;;;;;;0.10;0.10;;;;;;;26.58;56.13;101950.41;10471327;28;20054;-63
2021/08/13 13:21:36;;;;;;;0.10;0.10;;;;;;;26.45;54.91;101948.72;10492019;28;20096;-61
2021/08/13 13:26:37;;;;;;;0.00;0.00;;;;;;;26.47;58.45;101953.94;10497991;28;20123;-63
2021/08/13 13:31:41;;;;;;;0.00;0.00;;;;;;;26.34;57.64;101944.09;10497341;28;20111;-62
2021/08/13 13:36:42;;;;;;;0.10;0.10;;;;;;;26.50;60.04;101942.56;10497023;28;20081;-62
2021/08/13 13:41:42;;;;;;;0.10;0.10;;;;;;;26.60;56.77;101949.09;10496815;28;20094;-63
2021/08/13 13:46:44;;;;;;;0.10;0.10;;;;;;;26.66;56.01;101943.75;10495884;28;20493;-62
2021/08/13 13:51:44;;;;;;;0.00;0.00;;;;;;;26.74;54.29;101930.53;10496874;28;20146;-61
2021/08/13 13:56:44;;;;;;;0.00;0.00;;;;;;;26.68;55.09;101952.53;10492433;28;20619;-61
2021/08/13 14:01:44;;;;;;;0.00;0.00;;;;;;;26.48;55.93;101948.25;10456808;28;20087;-59
2021/08/13 14:06:45;;;;;;;0.10;0.10;;;;;;;26.28;55.01;101945.88;10464247;28;20029;-62
2021/08/13 14:11:45;;;;;;;0.10;0.10;;;;;;;26.13;55.80;101940.88;10468592;28;20025;-61
2021/08/13 14:16:45;;;;;;;0.10;0.10;;;;;;;26.08;55.12;101948.09;10464278;28;20025;-60
2021/08/13 14:21:45;;;;;;;0.00;0.00;;;;;;;25.97;55.93;101952.47;10482362;28;20028;-62
2021/08/13 14:26:46;;;;;;;0.10;0.10;;;;;;;25.88;57.19;101964.81;10494702;28;20115;-62
2021/08/13 14:31:46;;;;;;;0.10;0.10;;;;;;;25.95;57.65;101955.47;10494934;28;20021;-61
2021/08/13 14:36:47;;;;;;;0.10;0.10;;;;;;;26.02;58.23;101957.25;10494182;28;20479;-62
2021/08/13 14:41:47;;;;;;;0.10;0.10;;;;;;;25.88;55.82;101959.34;10476808;28;20104;-62
2021/08/13 14:46:48;;;;;;;0.00;0.00;;;;;;;25.85;57.32;101978.91;10493855;28;20021;-63
2021/08/13 14:51:48;;;;;;;0.00;0.00;;;;;;;25.51;58.58;101979.38;10494095;28;20021;-63
2021/08/13 14:56:48;;;;;;;0.10;0.10;;;;;;;25.12;59.76;101980.69;10494329;28;20028;-63
2021/08/13 15:01:49;;;;;;;0.05;0.05;;;;;;;24.94;59.70;101986.16;10493288;28;20024;-63
2021/08/13 15:06:49;;;;;;;0.10;0.10;;;;;;;24.88;58.95;101995.22;10492896;28;20024;-62
2021/08/13 15:11:50;;;;;;;0.10;0.10;;;;;;;24.79;59.36;102000.97;10492612;28;20114;-63
2021/08/13 15:16:50;;;;;;;0.00;0.00;;;;;;;24.71;58.00;102000.44;10493112;28;20025;-67
2021/08/13 15:21:51;;;;;;;0.10;0.10;;;;;;;24.73;57.12;102004.59;10492172;28;20368;-63
2021/08/13 15:26:52;;;;;;;0.00;0.00;;;;;;;24.65;54.28;101999.44;10492616;28;20027;-63
2021/08/13 15:31:52;;;;;;;0.10;0.10;;;;;;;24.51;54.67;102008.78;10491788;28;20028;-63
2021/08/13 15:36:52;;;;;;;0.00;0.00;;;;;;;24.32;53.67;102013.34;10484075;28;20495;-66
2021/08/13 15:41:53;;;;;;;0.00;0.00;;;;;;;24.22;54.49;102018.44;10449045;28;20048;-64
2021/08/13 15:46:53;;;;;;;0.00;0.00;;;;;;;24.15;54.28;102022.03;10449023;28;20059;-63
2021/08/13 15:51:54;;;;;;;0.00;0.00;;;;;;;23.97;50.67;102034.72;10449757;28;20112;-63
2021/08/13 15:56:54;;;;;;;0.08;0.08;;;;;;;23.81;52.79;102031.47;10444832;28;20509;-62
2021/08/13 16:01:55;;;;;;;0.00;0.00;;;;;;;23.60;51.03;102027.16;10445861;28;20230;-63
2021/08/13 16:06:56;;;;;;;0.00;0.00;;;;;;;23.41;50.11;102028.06;10444593;28;20029;-61
2021/08/13 16:11:56;;;;;;;0.10;0.10;;;;;;;23.17;50.90;102029.63;10444496;28;20391;-61
2021/08/13 16:16:57;;;;;;;0.00;0.00;;;;;;;23.01;51.35;102048.06;10446265;28;20447;-62
2021/08/13 16:21:57;;;;;;;0.08;0.08;;;;;;;22.85;51.03;102034.06;10447142;28;20116;-63
2021/08/13 16:26:58;;;;;;;0.10;0.10;;;;;;;22.71;53.12;102049.53;10448863;28;20029;-63
2021/08/13 16:31:58;;;;;;;0.10;0.10;;;;;;;22.52;53.75;102045.78;10449061;28;20055;-64
2021/08/13 16:36:59;;;;;;;0.10;0.10;;;;;;;22.29;54.27;102046.19;10448865;28;20029;-63
2021/08/13 16:41:59;;;;;;;0.00;0.00;;;;;;;22.15;53.99;102056.16;10448652;28;20025;-63
2021/08/13 16:46:59;;;;;;;0.00;0.00;;;;;;;22.02;55.53;102051.56;10448318;28;20037;-63
2021/08/13 16:52:00;;;;;;;0.00;0.00;;;;;;;21.83;58.25;102063.19;10448499;28;20214;-65
2021/08/13 16:57:00;;;;;;;0.00;0.00;;;;;;;21.70;62.31;102072.94;10448228;28;20096;-65
2021/08/13 17:02:00;;;;;;;0.00;0.00;;;;;;;21.55;64.51;102074.13;10448784;28;20032;-63
2021/08/13 17:07:00;;;;;;;0.10;0.10;;;;;;;21.31;62.82;102061.88;10448147;28;20040;-62
2021/08/13 17:12:01;;;;;;;0.00;0.00;;;;;;;21.07;63.61;102069.47;10430097;28;20467;-65
2021/08/13 17:17:01;;;;;;;0.10;0.10;;;;;;;20.96;63.74;102076.25;10448079;28;20124;-65
2021/08/13 17:22:02;;;;;;;0.07;0.07;;;;;;;20.86;64.77;102064.13;10447998;28;20033;-63
2021/08/13 17:27:02;;;;;;;0.00;0.00;;;;;;;20.74;65.04;102082.75;10447672;28;20044;-63
2021/08/13 17:32:03;;;;;;;0.10;0.10;;;;;;;20.60;64.67;102065.59;10447479;28;20337;-65
2021/08/13 17:37:03;;;;;;;0.10;0.10;;;;;;;20.54;65.87;102071.78;10447620;28;20137;-64
2021/08/13 17:42:04;;;;;;;0.10;0.10;;;;;;;20.44;65.13;102088.28;10447337;28;20493;-64
2021/08/13 17:47:04;;;;;;;0.10;0.10;;;;;;;20.38;65.99;102085.53;10447638;28;20036;-64
2021/08/13 17:52:05;;;;;;;0.00;0.00;;;;;;;20.31;66.56;102080.91;10446888;28;20087;-63
2021/08/13 17:57:06;;;;;;;0.00;0.00;;;;;;;20.24;67.03;102076.44;10446857;28;20025;-63
2021/08/13 18:02:06;;;;;;;0.07;0.07;;;;;;;20.16;67.38;102096.34;10447036;28;20025;-64
2021/08/13 18:07:07;;;;;;;0.00;0.00;;;;;;;20.10;66.94;102095.25;10447365;28;20104;-63
2021/08/13 18:12:07;;;;;;;0.00;0.00;;;;;;;20.01;68.02;102095.53;10454094;28;20479;-64
2021/08/13 18:17:08;;;;;;;0.03;0.03;;;;;;;19.90;68.06;102092.31;10453933;28;20032;-64
2021/08/13 18:22:09;;;;;;;0.10;0.10;;;;;;;19.71;68.21;102090.22;10455036;28;20020;-64
2021/08/13 18:27:10;;;;;;;0.00;0.00;;;;;;;19.50;68.61;102101.75;10453906;28;20021;-64
2021/08/13 18:32:10;;;;;;;0.00;0.00;;;;;;;19.30;70.68;102108.75;10453374;28;20631;-64
2021/08/13 18:37:11;;;;;;;0.00;0.00;;;;;;;19.12;71.57;102122.63;10453783;28;20095;-64
2021/08/13 18:42:13;;;;;;;0.00;0.00;;;;;;;18.94;73.01;102131.91;10453021;28;20040;-63
2021/08/13 18:47:13;;;;;;;0.10;0.10;;;;;;;18.75;74.37;102132.38;10434823;28;20036;-64
2021/08/13 18:52:13;;;;;;;0.03;0.03;;;;;;;18.58;75.58;102128.09;10452604;28;20052;-64
2021/08/13 18:57:14;;;;;;;0.10;0.10;;;;;;;18.40;75.88;102131.94;10452312;28;20060;-64
2021/08/13 19:02:14;;;;;;;0.10;0.10;;;;;;;18.26;76.45;102138.09;10452411;28;20091;-61
2021/08/13 19:07:15;;;;;;;0.10;0.10;;;;;;;18.14;76.38;102142.22;10451864;28;20053;-64
2021/08/13 19:12:20;;;;;;;0.10;0.10;;;;;;;18.00;76.55;102141.09;10451567;28;20021;-62
2021/08/13 19:17:21;;;;;;;0.10;0.10;;;;;;;17.88;76.48;102154.97;10452154;28;20086;-62
2021/08/13 19:22:21;;;;;;;0.03;0.03;;;;;;;17.77;76.95;102163.44;10451707;28;20395;-64
2021/08/13 19:27:22;;;;;;;0.10;0.10;;;;;;;17.63;77.45;102162.28;10451062;28;20385;-64
2021/08/13 19:32:22;;;;;;;0.00;0.00;;;;;;;17.52;78.46;102169.91;10450821;28;20165;-63
2021/08/13 19:37:22;;;;;;;0.10;0.10;;;;;;;17.42;78.76;102175.47;10450482;28;20033;-64
2021/08/13 19:42:23;;;;;;;0.10;0.10;;;;;;;17.34;78.87;102179.03;10450393;28;20024;-64
2021/08/13 19:47:23;;;;;;;0.00;0.00;;;;;;;17.26;79.07;102170.97;10462904;28;20037;-64
2021/08/13 19:52:23;;;;;;;0.10;0.10;;;;;;;17.19;79.05;102165.44;10491170;28;20047;-64
2021/08/13 19:57:24;;;;;;;0.10;0.10;;;;;;;17.11;79.55;102169.97;10510849;22;20455;-62
2021/08/13 20:02:24;;;;;;;0.10;0.10;;;;;;;17.04;79.82;102175.19;10551196;28;20035;-61
2021/08/13 20:07:24;;;;;;;0.10;0.10;;;;;;;16.96;79.86;102173.34;10535504;28;20042;-62
2021/08/13 20:12:25;;;;;;;0.10;0.10;;;;;;;16.92;80.26;102180.06;10541652;28;20030;-61
2021/08/13 20:17:25;;;;;;;0.10;0.10;;;;;;;16.90;80.39;102174.03;10522537;28;20031;-62
2021/08/13 20:22:25;;;;;;;0.10;0.10;;;;;;;16.87;79.98;102186.94;10558563;28;20062;-62
2021/08/13 20:27:26;;;;;;;0.00;0.00;;;;;;;16.90;80.97;102181.22;10534233;28;20448;-62
2021/08/13 20:32:26;;;;;;;0.10;0.10;;;;;;;16.91;80.58;102188.31;10500493;28;20016;-63
2021/08/13 20:37:26;;;;;;;0.10;0.10;;;;;;;16.87;80.53;102181.56;10500453;28;20031;-62
2021/08/13 20:42:27;;;;;;;0.10;0.10;;;;;;;16.78;80.92;102179.88;10534437;28;20027;-62
2021/08/13 20:47:28;;;;;;;0.10;0.10;;;;;;;16.72;81.26;102173.28;10541612;28;20043;-62
2021/08/13 20:52:28;;;;;;;0.10;0.10;;;;;;;16.67;81.39;102175.66;10534906;28;20501;-62
2021/08/13 20:57:28;;;;;;;0.10;0.10;;;;;;;16.60;81.71;102169.25;10526735;28;20024;-62
2021/08/13 21:02:29;;;;;;;0.10;0.10;;;;;;;16.51;81.95;102171.91;10516721;28;20020;-63
2021/08/13 21:07:29;;;;;;;0.10;0.10;;;;;;;16.44;82.31;102175.44;10537797;28;20036;-62
2021/08/13 21:12:29;;;;;;;0.00;0.00;;;;;;;16.36;82.84;102170.88;10518357;28;20466;-61
2021/08/13 21:17:30;;;;;;;0.10;0.10;;;;;;;16.26;83.25;102172.88;10526321;28;20406;-62
2021/08/13 21:22:31;;;;;;;0.10;0.10;;;;;;;16.18;83.44;102175.56;10532049;28;20023;-63
2021/08/13 21:27:31;;;;;;;0.10;0.10;;;;;;;16.11;83.33;102169.13;10538749;28;20036;-61
2021/08/13 21:32:31;;;;;;;0.10;0.10;;;;;;;16.06;83.65;102169.63;10542454;28;20035;-61
2021/08/13 21:37:32;;;;;;;0.10;0.10;;;;;;;16.00;84.26;102170.28;10514400;28;20031;-60
2021/08/13 21:42:32;;;;;;;0.10;0.10;;;;;;;15.94;85.00;102179.84;10510526;28;20270;-61
2021/08/13 21:47:32;;;;;;;0.10;0.10;;;;;;;15.89;84.86;102184.00;10523948;28;20407;-62
2021/08/13 21:52:32;;;;;;;0.10;0.10;;;;;;;15.82;84.82;102181.97;10519818;28;20459;-61
2021/08/13 21:57:33;;;;;;;0.10;0.10;;;;;;;15.77;84.97;102181.59;10531938;28;20028;-62
2021/08/13 22:02:33;;;;;;;0.10;0.10;;;;;;;15.75;85.28;102186.28;10525148;28;20030;-62
2021/08/13 22:07:33;;;;;;;0.10;0.10;;;;;;;15.69;85.37;102186.91;10530395;28;20493;-62
2021/08/13 22:12:34;;;;;;;0.10;0.10;;;;;;;15.66;85.46;102184.53;10545552;28;20394;-61
2021/08/13 22:17:37;;;;;;;0.10;0.10;;;;;;;15.63;86.22;102179.47;10539129;28;20837;-62
2021/08/13 22:22:37;;;;;;;0.10;0.10;;;;;;;15.58;86.02;102177.25;10539305;28;20062;-60
2021/08/13 22:27:38;;;;;;;0.10;0.10;;;;;;;15.55;85.97;102169.50;10516107;28;20115;-62
2021/08/13 22:32:43;;;;;;;0.10;0.10;;;;;;;15.55;86.42;102177.56;10537500;28;20106;-62
2021/08/13 22:37:43;;;;;;;0.10;0.10;;;;;;;15.53;86.27;102176.03;10540412;28;20266;-62
2021/08/13 22:42:44;;;;;;;0.00;0.00;;;;;;;15.49;86.17;102175.53;10536482;28;20414;-62
2021/08/13 22:47:44;;;;;;;0.10;0.10;;;;;;;15.46;86.21;102177.69;10507349;28;20429;-60
2021/08/13 22:52:44;;;;;;;0.10;0.10;;;;;;;15.40;86.11;102174.63;10543349;28;20020;-61
2021/08/13 22:57:45;;;;;;;0.10;0.10;;;;;;;15.37;86.67;102172.25;10536966;28;20027;-63
2021/08/13 23:02:45;;;;;;;0.00;0.00;;;;;;;15.34;87.37;102167.22;10519730;28;20096;-62
2021/08/13 23:07:45;;;;;;;0.10;0.10;;;;;;;15.34;87.11;102177.13;10527825;28;20286;-61